METAR Data
IDs: Format: Raw Decoded Include TAF

Data at: 1304 UTC 11 Dec 2018

KINK 111253Z AUTO 00000KT 3SM BR CLR 00/M01 A3021 RMK AO2 SLP234 T00001006 TSNO
KINK 111238Z AUTO 35003KT 3SM BR SCT002 00/M01 A3021 RMK AO2 T00001006 TSNO
KINK 111234Z AUTO 00000KT 2 1/2SM BR BKN002 00/M01 A3021 RMK AO2 T00001006 TSNO
KINK 111200Z AUTO 33004KT 1SM BR VV003 00/M01 A3021 RMK AO2 T00001006 TSNO
KINK 111153Z AUTO 33005KT 2SM BR BKN002 00/M01 A3021 RMK AO2 SLP231 I6001 T00001006 10000 21011 56012 TSNO
KINK 111148Z AUTO 33006KT 2 1/2SM BR BKN002 00/M01 A3021 RMK AO2 TSNO
KINK 111106Z AUTO 36004KT 1SM BR VV002 00/M01 A3023 RMK AO2 T00001006 TSNO
KINK 111053Z AUTO 02003KT 3/4SM BR VV002 00/M01 A3023 RMK AO2 SLP236 T00001006 TSNO
KINK 111003Z AUTO 00000KT 1/2SM FG VV002 00/M01 A3025 RMK AO2 T00001006 TSNO
KINK 110953Z AUTO 00000KT 1/4SM FG VV002 00/M01 A3025 RMK AO2 SLP242 I1001 T00001006 TSNO
KINK 110939Z AUTO 00000KT 1/2SM FG VV002 00/M01 A3025 RMK AO2 I1001 T00001006 TSNO
KINK 110853Z AUTO 05003KT 1/4SM FG VV002 00/M01 A3026 RMK AO2 SLP248 T00001006 58010 TSNO
KINK 110753Z AUTO 00000KT 1/4SM FZFG VV003 M01/M01 A3028 RMK AO2 SLP254 T10061011 TSNO
KINK 110653Z AUTO 00000KT 1/4SM FZFG VV002 M01/M01 A3029 RMK AO2 SLP261 T10061011 TSNO
KINK 110553Z AUTO 03004KT 1/4SM FG VV002 00/M01 A3029 RMK AO2 SLP261 T00001006 10056 20000 400781028 58009 TSNO
KINK 110453Z AUTO 03005KT 1/4SM FG VV001 01/00 A3031 RMK AO2 SLP266 T00060000 TSNO
KINK 110353Z AUTO 00000KT M1/4SM FG VV001 01/01 A3031 RMK AO2 SLP269 T00060006 TSNO
KINK 110253Z AUTO 17004KT M1/4SM FG VV001 02/01 A3032 RMK AO2 SLP273 T00170011 52009 TSNO
KINK 110236Z AUTO 15005KT 1/4SM FG VV002 02/01 A3031 RMK AO2 T00170011 TSNO
KINK 110221Z AUTO 16006KT 3/4SM BR VV003 01/01 A3031 RMK AO2 T00110006 TSNO
KINK 110214Z AUTO 15006KT 1 3/4SM BR FEW004 01/01 A3031 RMK AO2 T00110006 TSNO
KINK 110203Z AUTO 17006KT 2 1/2SM BR CLR 02/01 A3031 RMK AO2 T00170006 TSNO
KINK 110153Z AUTO 17006KT 3SM BR CLR 02/01 A3031 RMK AO2 SLP270 T00170011 TSNO
KINK 110053Z AUTO 18007KT 6SM BR CLR 03/02 A3030 RMK AO2 SLP268 T00330022 TSNO
KINK 102353Z AUTO 16004KT 8SM CLR 06/03 A3029 RMK AO2 SLP262 T00560028 10078 20033 55008 TSNO
KINK 102253Z AUTO 17004KT 9SM CLR 07/03 A3029 RMK AO2 SLP259 T00720033 TSNO
KINK 102153Z AUTO 19004KT 8SM CLR 07/03 A3030 RMK AO2 SLP262 T00720033 TSNO
KINK 102131Z AUTO VRB03KT 7SM SCT007 07/04 A3030 RMK AO2 T00670039 TSNO
KINK 102053Z AUTO 22005KT 6SM BR OVC006 05/03 A3032 RMK AO2 SLP271 T00500033 58016 TSNO
KINK 102033Z AUTO 26005KT 6SM BR OVC005 05/03 A3032 RMK AO2 T00500033 TSNO
KINK 101953Z AUTO 00000KT 4SM BR OVC004 04/03 A3033 RMK AO2 SLP276 T00440028 TSNO
KINK 101853Z AUTO 25006KT 3SM BR OVC003 04/03 A3037 RMK AO2 SLP287 T00390028 TSNO
KINK 101829Z AUTO 28004KT 2 1/2SM BR OVC002 04/03 A3038 RMK AO2 T00390028 TSNO
KINK 101804Z AUTO 00000KT 1 1/4SM BR OVC002 03/03 A3040 RMK AO2 T00330028 TSNO
KINK 101753Z AUTO 24006KT 1/2SM FG OVC002 03/03 A3040 RMK AO2 SLP299 I6002 T00330033 10033 21028 58002 TSNO
KINK 101741Z AUTO 25005KT 3/4SM BR OVC002 03/03 A3040 RMK AO2 T00330033 TSNO
KINK 101715Z AUTO 29007KT 1SM BR OVC002 03/03 A3041 RMK AO2 T00330028 TSNO
KINK 101653Z AUTO 29006KT 3/4SM BR OVC002 03/02 A3042 RMK AO2 SLP305 T00280022 TSNO
KINK 101553Z AUTO 27007KT 1/2SM FG VV003 02/02 A3042 RMK AO2 SLP304 I1000 T00220017 TSNO
KINK 101453Z AUTO 00000KT 1/4SM FG VV002 00/M01 A3041 RMK AO2 SLP302 I1001 I3002 T00001006 53012 TSNO
KINK 101353Z AUTO 00000KT 1/4SM FZFG VV002 M01/M02 A3039 RMK AO2 SLP297 I1001 T10111017 TSNO
KINK 101311Z AUTO 32007KT 3/4SM BR VV002 M02/M03 A3039 RMK AO2 T10171028 TSNO
KINK 101305Z AUTO 32008KT 2SM BR BKN003 M02/M03 A3039 RMK AO2 T10171028 TSNO
KINK 101303Z AUTO 32006KT 3SM BR SCT003 M02/M03 A3039 RMK AO2 T10221028 TSNO
KINK 101253Z AUTO 31006KT 6SM BR CLR M02/M03 A3038 RMK AO2 SLP294 I1000 T10221033 TSNO
KINK 101153Z AUTO 27005KT 4SM BR CLR M02/M03 A3037 RMK AO2 SLP286 I1000 I6000 T10221033 10000 21028 55002 TSNO
KINK 101053Z AUTO 31005KT 4SM BR CLR M02/M03 A3036 RMK AO2 SLP280 I1000 T10221033 TSNO
KINK 100953Z AUTO 30003KT 4SM BR CLR M02/M03 A3037 RMK AO2 SLP283 T10171028 TSNO
KINK 100853Z AUTO 33005KT 4SM BR CLR M02/M03 A3037 RMK AO2 SLP285 T10171028 58006 TSNO
KINK 100753Z AUTO 35005KT 4SM BR CLR M02/M03 A3039 RMK AO2 SLP290 T10171028 TSNO
KINK 100653Z AUTO 02007KT 5SM BR CLR 00/M01 A3039 RMK AO2 SLP291 T00001011 TSNO
KINK 100553Z AUTO 36005KT 5SM BR CLR M01/M02 A3039 RMK AO2 SLP291 T10061017 10061 21006 400941033 51007 TSNO
KINK 100453Z AUTO 32006KT 5SM BR CLR 00/M01 A3038 RMK AO2 SLP288 T00001006 TSNO
KINK 100353Z AUTO 36008KT 5SM BR CLR 01/M01 A3039 RMK AO2 SLP293 T00111006 TSNO
KINK 100253Z AUTO 30005KT 7SM CLR 02/01 A3037 RMK AO2 SLP290 T00170006 52016 TSNO
KINK 100153Z AUTO 00000KT 9SM CLR 03/01 A3035 RMK AO2 SLP287 T00280006 TSNO